createdAt,value
2023-02-24T00:00:32.487Z,99720.19
2023-02-24T00:03:15.352Z,99721.57
2023-02-24T00:05:44.915Z,99718.73
2023-02-24T00:08:13.371Z,99716.81
2023-02-24T00:10:42.325Z,99712.25
2023-02-24T00:13:12.372Z,99708.77
2023-02-24T00:15:41.039Z,99709.39
2023-02-24T00:18:09.756Z,99701.65
2023-02-24T00:20:38.188Z,99699.70
2023-02-24T00:23:06.704Z,99696.30
2023-02-24T00:25:35.155Z,99692.16
2023-02-24T00:28:03.671Z,99686.82
2023-02-24T00:30:33.310Z,99685.41
2023-02-24T00:33:02.969Z,99683.00
2023-02-24T00:35:32.714Z,99678.05
2023-02-24T00:38:01.456Z,99676.30
2023-02-24T00:40:30.965Z,99666.89
2023-02-24T00:43:01.244Z,99662.86
2023-02-24T00:45:31.189Z,99659.71
2023-02-24T00:47:59.737Z,99660.09
2023-02-24T00:50:28.246Z,99657.16
2023-02-24T00:52:57.507Z,99658.05
2023-02-24T00:55:36.546Z,99653.63
2023-02-24T00:58:07.573Z,99648.82
2023-02-24T01:00:37.203Z,99647.59
2023-02-24T01:03:06.803Z,99643.41
2023-02-24T01:05:36.999Z,99645.41
2023-02-24T01:08:05.759Z,99644.05
2023-02-24T01:10:34.794Z,99641.81
2023-02-24T01:13:03.339Z,99639.52
2023-02-24T01:15:31.880Z,99641.88
2023-02-24T01:18:00.311Z,99641.33
2023-02-24T01:20:30.661Z,99631.84
2023-02-24T01:22:59.298Z,99626.94
2023-02-24T01:25:28.090Z,99625.33
2023-02-24T01:27:56.592Z,99626.02
2023-02-24T01:30:25.030Z,99621.63
2023-02-24T01:32:53.790Z,99624.79
2023-02-24T01:35:22.446Z,99623.49
2023-02-24T01:37:50.885Z,99617.04
2023-02-24T01:40:21.732Z,99613.77
2023-02-24T01:42:50.528Z,99612.55
2023-02-24T01:45:23.042Z,99610.04
2023-02-24T01:47:53.272Z,99606.99
2023-02-24T01:50:24.003Z,99601.83
2023-02-24T01:53:01.269Z,99598.71
2023-02-24T01:55:52.407Z,99592.64
2023-02-24T01:58:26.885Z,99589.64
2023-02-24T02:00:58.120Z,99586.77
2023-02-24T02:03:34.119Z,99584.38
2023-02-24T02:06:09.685Z,99581.05
2023-02-24T02:08:41.260Z,99578.83
2023-02-24T02:11:20.880Z,99577.92
2023-02-24T02:13:52.678Z,99576.85
2023-02-24T02:16:43.997Z,99576.56
2023-02-24T02:19:28.260Z,99571.84
2023-02-24T02:22:17.558Z,99571.82
2023-02-24T02:24:53.268Z,99573.06
2023-02-24T02:27:45.466Z,99566.92
2023-02-24T02:30:14.654Z,99561.95
2023-02-24T02:33:05.460Z,99561.60
2023-02-24T02:35:49.137Z,99555.69
2023-02-24T02:38:26.493Z,99551.16
2023-02-24T02:41:29.133Z,99551.71
2023-02-24T02:44:08.046Z,99551.35
2023-02-24T02:46:48.206Z,99546.95
2023-02-24T02:49:31.042Z,99548.71
2023-02-24T02:52:07.666Z,99547.67
2023-02-24T02:54:41.253Z,99546.64
2023-02-24T02:57:18.899Z,99539.79
2023-02-24T02:59:57.283Z,99539.80
2023-02-24T03:02:30.097Z,99536.97
2023-02-24T03:05:02.444Z,99544.00
2023-02-24T03:07:37.866Z,99540.17
2023-02-24T03:10:17.876Z,99540.88
2023-02-24T03:12:51.978Z,99535.96
2023-02-24T03:15:24.327Z,99531.59
2023-02-24T03:17:58.557Z,99533.35
2023-02-24T03:20:33.141Z,99533.50
2023-02-24T03:23:11.598Z,99529.63
2023-02-24T03:25:48.743Z,99526.28
2023-02-24T03:28:36.075Z,99529.13
2023-02-24T03:31:18.633Z,99524.36
2023-02-24T03:34:00.876Z,99526.29
2023-02-24T03:36:30.187Z,99525.61
2023-02-24T03:39:02.236Z,99524.93
2023-02-24T03:41:41.294Z,99522.64
2023-02-24T03:44:11.620Z,99520.87
2023-02-24T03:46:42.905Z,99522.83
2023-02-24T03:49:16.754Z,99517.55
2023-02-24T03:52:12.813Z,99511.59
2023-02-24T03:55:03.334Z,99510.86
2023-02-24T03:57:37.638Z,99513.86
2023-02-24T04:00:26.712Z,99511.79
2023-02-24T04:03:06.880Z,99504.92
2023-02-24T04:05:47.969Z,99506.17
2023-02-24T04:08:17.783Z,99508.13
2023-02-24T04:11:05.697Z,99502.67
2023-02-24T04:13:46.173Z,99501.11
2023-02-24T04:16:29.175Z,99498.84
2023-02-24T04:19:04.308Z,99495.89
2023-02-24T04:21:36.797Z,99496.25
2023-02-24T04:24:11.897Z,99489.76
2023-02-24T04:26:43.528Z,99486.44
2023-02-24T04:29:24.221Z,99487.31
2023-02-24T04:32:06.162Z,99479.80
2023-02-24T04:34:35.509Z,99477.51
2023-02-24T04:37:04.207Z,99474.54
2023-02-24T04:39:33.797Z,99478.92
2023-02-24T04:42:02.410Z,99477.02
2023-02-24T04:44:33.051Z,99467.73
2023-02-24T04:47:01.616Z,99464.05
2023-02-24T04:49:30.164Z,99465.45
2023-02-24T04:51:58.690Z,99460.38
2023-02-24T04:54:28.158Z,99460.91
2023-02-24T04:56:58.373Z,99463.17
2023-02-24T04:59:28.257Z,99461.08
2023-02-24T05:02:01.683Z,99456.17
2023-02-24T05:04:31.824Z,99456.88
2023-02-24T05:07:00.853Z,99451.11
2023-02-24T05:09:30.392Z,99448.48
2023-02-24T05:12:00.514Z,99447.09
2023-02-24T05:14:29.276Z,99446.55
2023-02-24T05:17:00.642Z,99446.04
2023-02-24T05:19:47.912Z,99447.09
2023-02-24T05:22:17.753Z,99449.17
2023-02-24T05:24:48.198Z,99441.83
2023-02-24T05:27:17.737Z,99437.48
2023-02-24T05:29:46.351Z,99438.86
2023-02-24T05:32:17.024Z,99432.58
2023-02-24T05:34:45.696Z,99433.80
2023-02-24T05:37:16.925Z,99434.31
2023-02-24T05:39:45.376Z,99431.33
2023-02-24T05:42:13.889Z,99426.08
2023-02-24T05:44:42.319Z,99426.76
2023-02-24T05:47:11.134Z,99423.98
2023-02-24T05:49:39.716Z,99426.77
2023-02-24T05:52:09.843Z,99431.50
2023-02-24T05:54:42.829Z,99426.05
2023-02-24T05:57:14.388Z,99423.23
2023-02-24T05:59:44.873Z,99422.73
2023-02-24T06:02:16.073Z,99423.09
2023-02-24T06:04:51.614Z,99420.83
2023-02-24T06:07:25.207Z,99416.19
2023-02-24T06:09:59.001Z,99418.67
2023-02-24T06:12:36.277Z,99410.44
2023-02-24T06:15:08.114Z,99412.37
2023-02-24T06:17:37.039Z,99409.76
2023-02-24T06:20:14.233Z,99404.64
2023-02-24T06:22:42.755Z,99406.98
2023-02-24T06:25:14.482Z,99402.08
2023-02-24T06:27:43.413Z,99402.05
2023-02-24T06:30:12.822Z,99403.95
2023-02-24T06:32:41.360Z,99404.81
2023-02-24T06:35:12.946Z,99403.54
2023-02-24T06:37:41.578Z,99395.02
2023-02-24T06:40:16.108Z,99398.48
2023-02-24T06:42:49.691Z,99397.48
2023-02-24T06:45:18.260Z,99395.37
2023-02-24T06:47:49.240Z,99395.73
2023-02-24T06:50:20.393Z,99396.26
2023-02-24T06:52:50.253Z,99393.16
2023-02-24T06:55:27.709Z,99392.61
2023-02-24T06:57:58.986Z,99392.11
2023-02-24T07:00:39.101Z,99393.64
2023-02-24T07:03:16.879Z,99390.46
2023-02-24T07:05:50.884Z,99389.27
2023-02-24T07:08:27.699Z,99393.76
2023-02-24T07:11:00.255Z,99406.92
2023-02-24T07:13:30.227Z,99412.11
2023-02-24T07:16:12.077Z,99412.77
2023-02-24T07:18:41.046Z,99413.52
2023-02-24T07:21:16.726Z,99417.39
2023-02-24T07:23:49.917Z,99418.29
2023-02-24T07:26:22.658Z,99419.95
2023-02-24T07:28:55.290Z,99420.45
2023-02-24T07:31:26.479Z,99412.80
2023-02-24T07:34:02.280Z,99414.81
2023-02-24T07:36:35.281Z,99411.29
2023-02-24T07:39:04.102Z,99413.21
2023-02-24T07:41:32.858Z,99410.70
2023-02-24T07:44:03.674Z,99410.45
2023-02-24T07:46:32.844Z,99411.02
2023-02-24T07:49:03.336Z,99405.92
2023-02-24T07:51:31.837Z,99403.28
2023-02-24T07:54:01.773Z,99399.65
2023-02-24T07:56:33.138Z,99404.05
2023-02-24T07:59:08.178Z,99400.05
2023-02-24T08:01:41.040Z,99406.08
2023-02-24T08:04:13.488Z,99401.17
2023-02-24T08:06:47.951Z,99401.39
2023-02-24T08:09:20.822Z,99393.98
2023-02-24T08:11:52.615Z,99394.32
2023-02-24T08:14:44.775Z,99389.81
2023-02-24T08:17:19.109Z,99390.44
2023-02-24T08:20:01.368Z,99390.48
2023-02-24T08:22:37.583Z,99385.35
2023-02-24T08:25:06.947Z,99388.50
2023-02-24T08:27:43.211Z,99382.40
2023-02-24T08:30:25.319Z,99380.32
2023-02-24T08:32:57.490Z,99387.93
2023-02-24T08:35:36.298Z,99387.87
2023-02-24T08:38:16.741Z,99388.73
2023-02-24T08:40:50.693Z,99380.91
2023-02-24T08:43:33.365Z,99381.36
2023-02-24T08:46:13.751Z,99374.37
2023-02-24T08:48:48.352Z,99377.93
2023-02-24T08:51:29.092Z,99371.27
2023-02-24T08:54:00.602Z,99364.17
2023-02-24T08:56:35.239Z,99362.81
2023-02-24T08:59:06.313Z,99355.06
2023-02-24T09:01:40.384Z,99356.61
2023-02-24T09:04:11.624Z,99349.82
2023-02-24T09:06:46.150Z,99347.51
2023-02-24T09:09:18.408Z,99349.09
2023-02-24T09:11:57.432Z,99338.70
2023-02-24T09:14:36.713Z,99337.96
2023-02-24T09:17:11.810Z,99338.35
2023-02-24T09:19:48.288Z,99333.06
2023-02-24T09:22:31.771Z,99334.15
2023-02-24T09:25:24.411Z,99331.63
2023-02-24T09:28:17.757Z,99327.46
2023-02-24T09:30:55.485Z,99323.61
2023-02-24T09:33:39.660Z,99326.52
2023-02-24T09:36:13.130Z,99322.11
2023-02-24T09:39:01.479Z,99318.51
2023-02-24T09:42:06.275Z,99309.55
2023-02-24T09:44:39.474Z,99307.21
2023-02-24T09:48:02.099Z,99305.56
2023-02-24T09:51:02.202Z,99306.96
2023-02-24T09:53:49.625Z,99297.84
2023-02-24T09:56:44.825Z,99296.33
2023-02-24T09:59:27.658Z,99293.35
2023-02-24T10:02:02.554Z,99283.68
2023-02-24T10:04:54.185Z,99280.98
2023-02-24T10:07:38.678Z,99283.95
2023-02-24T10:10:28.495Z,99272.27
2023-02-24T10:13:30.604Z,99280.11
2023-02-24T10:16:07.383Z,99271.98
2023-02-24T10:19:15.543Z,99274.14
2023-02-24T10:22:08.848Z,99259.23
2023-02-24T10:24:49.669Z,99261.20
2023-02-24T10:27:25.360Z,99256.23
2023-02-24T10:30:27.994Z,99257.70
2023-02-24T10:33:00.405Z,99250.45
2023-02-24T10:35:37.044Z,99243.29
2023-02-24T10:38:05.695Z,99238.94
2023-02-24T10:40:48.438Z,99245.30
2023-02-24T10:43:20.281Z,99235.89
2023-02-24T10:45:48.789Z,99236.38
2023-02-24T10:48:40.743Z,99222.22
2023-02-24T10:51:30.582Z,99223.55
2023-02-24T10:54:22.615Z,99213.96
2023-02-24T10:57:01.058Z,99213.01
2023-02-24T10:59:33.224Z,99211.33
2023-02-24T11:02:24.971Z,99205.35
2023-02-24T11:05:04.819Z,99196.88
2023-02-24T11:07:44.277Z,99193.63
2023-02-24T11:10:15.162Z,99191.20
2023-02-24T11:13:10.029Z,99184.22
2023-02-24T11:16:11.300Z,99178.23
2023-02-24T11:18:46.317Z,99169.44
2023-02-24T11:21:16.652Z,99159.09
2023-02-24T11:23:51.699Z,99150.17
2023-02-24T11:26:41.960Z,99143.91
2023-02-24T11:29:17.788Z,99136.05
2023-02-24T11:31:56.293Z,99132.55
2023-02-24T11:35:06.506Z,99129.62
2023-02-24T11:37:43.746Z,99119.32
2023-02-24T11:40:12.174Z,99111.72
2023-02-24T11:42:56.523Z,99115.87
2023-02-24T11:45:38.102Z,99114.06
2023-02-24T11:48:18.217Z,99110.48
2023-02-24T11:51:02.262Z,99100.99
2023-02-24T11:53:55.168Z,99099.47
2023-02-24T11:56:45.424Z,99095.27
2023-02-24T11:59:31.231Z,99095.70
2023-02-24T12:02:31.289Z,99090.16
2023-02-24T12:05:19.144Z,99087.55
2023-02-24T12:07:55.205Z,99082.87
2023-02-24T12:10:28.048Z,99086.35
2023-02-24T12:13:12.649Z,99083.56
2023-02-24T12:15:46.987Z,99082.11
2023-02-24T12:18:24.349Z,99078.65
2023-02-24T12:21:30.773Z,99068.53
2023-02-24T12:24:01.575Z,99072.88
2023-02-24T12:26:42.993Z,99068.65
2023-02-24T12:29:50.799Z,99061.77
2023-02-24T12:32:50.235Z,99055.88
2023-02-24T12:35:44.872Z,99047.86
2023-02-24T12:38:31.502Z,99047.88
2023-02-24T12:41:29.425Z,99035.72
2023-02-24T12:44:18.187Z,99032.75
2023-02-24T12:46:55.706Z,99027.41
2023-02-24T12:49:51.138Z,99028.05
2023-02-24T12:52:42.660Z,99020.95
2023-02-24T12:55:21.902Z,99017.82
2023-02-24T12:57:59.503Z,99016.80
2023-02-24T13:00:43.890Z,99011.92
2023-02-24T13:03:54.205Z,99003.20
2023-02-24T13:06:23.149Z,98998.05
2023-02-24T13:08:54.723Z,98997.08
2023-02-24T13:11:31.396Z,98994.38
2023-02-24T13:14:23.124Z,98988.52
2023-02-24T13:16:51.983Z,98988.11
2023-02-24T13:19:32.056Z,98986.40
2023-02-24T13:22:12.731Z,98980.46
2023-02-24T13:25:07.927Z,98976.48
2023-02-24T13:27:39.211Z,98968.58
2023-02-24T13:30:18.590Z,98966.20
2023-02-24T13:32:59.827Z,98954.50
2023-02-24T13:35:31.061Z,98951.20
2023-02-24T13:38:10.680Z,98949.11
2023-02-24T13:40:39.196Z,98944.45
2023-02-24T13:43:24.881Z,98938.26
2023-02-24T13:46:00.535Z,98939.94
2023-02-24T13:48:48.486Z,98939.52
2023-02-24T13:51:54.636Z,98932.55
2023-02-24T13:54:26.398Z,98919.45
2023-02-24T13:57:20.652Z,98920.70
2023-02-24T14:00:12.272Z,98915.96
2023-02-24T14:02:44.506Z,98912.45
2023-02-24T14:05:30.411Z,98908.95
2023-02-24T14:08:00.134Z,98907.36
2023-02-24T14:10:31.464Z,98906.52
2023-02-24T14:13:08.351Z,98904.64
2023-02-24T14:15:42.363Z,98897.68
2023-02-24T14:18:21.303Z,98898.73
2023-02-24T14:20:49.688Z,98888.69
2023-02-24T14:23:34.785Z,98892.08
2023-02-24T14:26:12.292Z,98889.45
2023-02-24T14:28:42.257Z,98883.19
2023-02-24T14:31:14.432Z,98880.73
2023-02-24T14:33:46.042Z,98880.23
2023-02-24T14:36:18.870Z,98876.20
2023-02-24T14:38:47.349Z,98873.05
2023-02-24T14:41:24.533Z,98869.41
2023-02-24T14:43:53.800Z,98865.58
2023-02-24T14:46:23.278Z,98859.60
2023-02-24T14:48:55.517Z,98860.13
2023-02-24T14:51:27.053Z,98856.85
2023-02-24T14:53:59.660Z,98854.20
2023-02-24T14:56:31.762Z,98849.99
2023-02-24T14:59:12.688Z,98845.68
2023-02-24T15:01:46.909Z,98831.48
2023-02-24T15:04:37.252Z,98835.95
2023-02-24T15:07:17.552Z,98832.27
2023-02-24T15:09:49.624Z,98824.55
2023-02-24T15:12:45.959Z,98821.86
2023-02-24T15:15:36.090Z,98816.08
2023-02-24T15:18:11.516Z,98807.17
2023-02-24T15:20:41.234Z,98802.79
2023-02-24T15:23:31.689Z,98798.78
2023-02-24T15:26:00.903Z,98789.00
2023-02-24T15:28:35.104Z,98782.80
2023-02-24T15:31:11.549Z,98781.55
2023-02-24T15:33:45.553Z,98782.88
2023-02-24T15:36:24.974Z,98780.98
2023-02-24T15:38:58.368Z,98779.31
2023-02-24T15:41:37.661Z,98774.42
2023-02-24T15:44:06.102Z,98770.92
2023-02-24T15:46:37.076Z,98765.79
2023-02-24T15:49:06.090Z,98762.90
2023-02-24T15:51:42.967Z,98757.73
2023-02-24T15:54:15.334Z,98756.89
2023-02-24T15:56:45.041Z,98750.97
2023-02-24T15:59:18.159Z,98747.15
2023-02-24T16:01:46.643Z,98739.13
2023-02-24T16:04:15.117Z,98737.73
2023-02-24T16:06:54.250Z,98729.23
2023-02-24T16:09:39.808Z,98730.72
2023-02-24T16:12:16.630Z,98733.21
2023-02-24T16:14:45.481Z,98720.35
2023-02-24T16:17:35.862Z,98714.54
2023-02-24T16:20:09.334Z,98716.41
2023-02-24T16:22:38.015Z,98711.73
2023-02-24T16:25:07.735Z,98709.49
2023-02-24T16:27:36.656Z,98715.65
2023-02-24T16:30:07.021Z,98708.86
2023-02-24T16:32:35.722Z,98706.69
2023-02-24T16:35:04.657Z,98701.06
2023-02-24T16:37:33.182Z,98696.96
2023-02-24T16:40:01.776Z,98692.21
2023-02-24T16:42:30.571Z,98690.70
2023-02-24T16:44:59.079Z,98690.11
2023-02-24T16:47:27.528Z,98690.89
2023-02-24T16:49:58.112Z,98692.55
2023-02-24T16:52:26.649Z,98688.45
2023-02-24T16:54:55.319Z,98683.98
2023-02-24T16:57:25.872Z,98684.38
2023-02-24T16:59:55.021Z,98684.73
2023-02-24T17:02:26.432Z,98680.67
2023-02-24T17:04:55.507Z,98679.21
2023-02-24T17:07:24.377Z,98674.50
2023-02-24T17:09:52.847Z,98671.48
2023-02-24T17:12:22.230Z,98669.48
2023-02-24T17:14:50.869Z,98668.97
2023-02-24T17:17:19.629Z,98668.27
2023-02-24T17:19:48.127Z,98670.02
2023-02-24T17:22:17.931Z,98669.33
2023-02-24T17:24:46.423Z,98662.69
2023-02-24T17:27:14.877Z,98660.25
2023-02-24T17:29:43.327Z,98657.27
2023-02-24T17:32:12.042Z,98656.77
2023-02-24T17:34:41.123Z,98660.84
2023-02-24T17:37:09.510Z,98655.08
2023-02-24T17:39:37.999Z,98656.63
2023-02-24T17:42:06.768Z,98653.67
2023-02-24T17:44:35.551Z,98646.02
2023-02-24T17:47:04.264Z,98640.98
2023-02-24T17:49:33.011Z,98644.27
2023-02-24T17:52:01.605Z,98638.00
2023-02-24T17:54:30.105Z,98639.06
2023-02-24T17:56:58.684Z,98634.02
2023-02-24T17:59:27.312Z,98632.83
2023-02-24T18:01:55.785Z,98630.41
2023-02-24T18:04:24.258Z,98621.70
2023-02-24T18:06:52.692Z,98621.71
2023-02-24T18:09:21.223Z,98613.34
2023-02-24T18:11:50.621Z,98611.06
2023-02-24T18:14:19.163Z,98604.09
2023-02-24T18:16:47.625Z,98603.59
2023-02-24T18:19:16.219Z,98600.15
2023-02-24T18:21:44.868Z,98595.09
2023-02-24T18:24:13.607Z,98593.17
2023-02-24T18:26:42.192Z,98593.01
2023-02-24T18:29:10.966Z,98586.92
2023-02-24T18:31:39.709Z,98589.17
2023-02-24T18:34:08.580Z,98585.32
2023-02-24T18:36:37.218Z,98583.09
2023-02-24T18:39:06.237Z,98580.12
2023-02-24T18:41:34.734Z,98577.50
2023-02-24T18:44:03.307Z,98580.29
2023-02-24T18:46:31.925Z,98580.13
2023-02-24T18:49:00.481Z,98573.34
2023-02-24T18:51:29.380Z,98571.23
2023-02-24T18:53:59.221Z,98569.16
2023-02-24T18:56:29.468Z,98569.70
2023-02-24T18:58:59.936Z,98567.61
2023-02-24T19:01:34.057Z,98564.13
2023-02-24T19:04:03.359Z,98559.21
2023-02-24T19:06:33.305Z,98556.13
2023-02-24T19:09:11.251Z,98551.27
2023-02-24T19:11:41.952Z,98549.02
2023-02-24T19:14:13.719Z,98546.74
2023-02-24T19:16:42.229Z,98540.64
2023-02-24T19:19:14.165Z,98534.73
2023-02-24T19:21:46.454Z,98533.52
2023-02-24T19:24:16.906Z,98530.72
2023-02-24T19:26:47.703Z,98530.88
2023-02-24T19:29:17.551Z,98523.24
2023-02-24T19:31:46.412Z,98518.56
2023-02-24T19:34:15.646Z,98517.86
2023-02-24T19:36:44.064Z,98511.96
2023-02-24T19:39:15.474Z,98513.55
2023-02-24T19:41:44.824Z,98510.23
2023-02-24T19:44:14.380Z,98513.87
2023-02-24T19:46:43.407Z,98509.36
2023-02-24T19:49:11.853Z,98505.02
2023-02-24T19:51:40.420Z,98507.59
2023-02-24T19:54:12.545Z,98505.64
2023-02-24T19:56:41.108Z,98499.10
2023-02-24T19:59:11.417Z,98494.77
2023-02-24T20:01:40.105Z,98491.45
2023-02-24T20:04:09.636Z,98485.70
2023-02-24T20:06:41.231Z,98488.84
2023-02-24T20:09:16.915Z,98488.98
2023-02-24T20:11:46.385Z,98486.39
2023-02-24T20:14:17.551Z,98485.36
2023-02-24T20:16:47.205Z,98481.40
2023-02-24T20:19:17.674Z,98483.84
2023-02-24T20:21:46.356Z,98474.29
2023-02-24T20:24:16.965Z,98474.11
2023-02-24T20:26:48.257Z,98472.89
2023-02-24T20:29:19.170Z,98473.08
2023-02-24T20:31:48.621Z,98469.25
2023-02-24T20:34:18.037Z,98468.73
2023-02-24T20:36:46.542Z,98463.67
2023-02-24T20:39:15.313Z,98456.88
2023-02-24T20:41:44.541Z,98456.90
2023-02-24T20:44:13.330Z,98450.80
2023-02-24T20:46:42.263Z,98449.58
2023-02-24T20:49:15.227Z,98448.38
2023-02-24T20:51:44.282Z,98445.77
2023-02-24T20:54:14.602Z,98443.36
2023-02-24T20:56:45.654Z,98434.45
2023-02-24T20:59:20.514Z,98433.56
2023-02-24T21:01:50.328Z,98433.04
2023-02-24T21:04:21.360Z,98429.60
2023-02-24T21:06:52.136Z,98425.61
2023-02-24T21:09:20.682Z,98426.67
2023-02-24T21:11:49.416Z,98428.21
2023-02-24T21:14:18.544Z,98424.73
2023-02-24T21:16:47.256Z,98421.80
2023-02-24T21:19:18.033Z,98419.90
2023-02-24T21:21:46.671Z,98422.34
2023-02-24T21:24:15.200Z,98418.34
2023-02-24T21:26:43.710Z,98409.30
2023-02-24T21:29:12.163Z,98407.40
2023-02-24T21:31:40.751Z,98401.84
2023-02-24T21:34:12.339Z,98402.36
2023-02-24T21:36:40.977Z,98393.83
2023-02-24T21:39:14.836Z,98392.27
2023-02-24T21:41:43.807Z,98393.65
2023-02-24T21:44:15.073Z,98386.88
2023-02-24T21:46:43.773Z,98384.10
2023-02-24T21:49:15.611Z,98382.55
2023-02-24T21:51:49.377Z,98387.75
2023-02-24T21:54:18.200Z,98391.41
2023-02-24T21:56:46.696Z,98386.04
2023-02-24T21:59:15.215Z,98385.16
2023-02-24T22:01:45.677Z,98386.73
2023-02-24T22:04:17.173Z,98383.41
2023-02-24T22:06:45.610Z,98370.91
2023-02-24T22:09:19.860Z,98366.92
2023-02-24T22:11:50.050Z,98365.69
2023-02-24T22:14:19.165Z,98368.64
2023-02-24T22:16:47.713Z,98369.32
2023-02-24T22:19:16.394Z,98359.27
2023-02-24T22:21:45.322Z,98355.64
2023-02-24T22:24:16.014Z,98352.68
2023-02-24T22:26:45.421Z,98346.07
2023-02-24T22:29:13.989Z,98346.45
2023-02-24T22:31:44.251Z,98346.26
2023-02-24T22:34:14.863Z,98345.39
2023-02-24T22:36:43.382Z,98341.41
2023-02-24T22:39:16.756Z,98337.05
2023-02-24T22:41:47.030Z,98335.09
2023-02-24T22:44:19.425Z,98328.52
2023-02-24T22:46:48.666Z,98322.27
2023-02-24T22:49:17.468Z,98327.15
2023-02-24T22:51:46.018Z,98321.74
2023-02-24T22:54:14.901Z,98322.30
2023-02-24T22:56:44.187Z,98318.25
2023-02-24T22:59:13.895Z,98315.78
2023-02-24T23:01:43.089Z,98316.36
2023-02-24T23:04:16.856Z,98314.65
2023-02-24T23:06:45.454Z,98314.30
2023-02-24T23:09:19.950Z,98311.84
2023-02-24T23:11:48.672Z,98307.04
2023-02-24T23:14:18.002Z,98303.52
2023-02-24T23:16:53.864Z,98302.64
2023-02-24T23:19:23.257Z,98296.92
2023-02-24T23:21:54.261Z,98297.08
2023-02-24T23:24:22.873Z,98294.13
2023-02-24T23:26:58.303Z,98290.67
2023-02-24T23:29:27.951Z,98291.88
2023-02-24T23:31:57.648Z,98293.98
2023-02-24T23:34:26.563Z,98292.40
2023-02-24T23:36:55.177Z,98291.91
2023-02-24T23:39:24.158Z,98291.17
2023-02-24T23:41:57.166Z,98285.95
2023-02-24T23:44:26.542Z,98283.86
2023-02-24T23:46:58.504Z,98278.25
2023-02-24T23:49:36.280Z,98276.89
2023-02-24T23:52:08.339Z,98272.16
2023-02-24T23:54:36.840Z,98267.70
2023-02-24T23:57:05.304Z,98269.48
2023-02-24T23:59:33.805Z,98265.98
